Time;durP1;ratioP1;P1;durP2;ratioP2;P2;SDS_P1;SDS_P2;PMS_P1;PMS_P2;Temp;Humidity;BMP_temperature;BMP_pressure;BME280_temperature;BME280_humidity;BME280_pressure;Samples;Min_cycle;Max_cycle;Signal;HPM_P1;HPM_P2
2023/04/22 14:44:55;;;;;;;;;;;20.40;65.50;;;;;;5124631;27;20365;-71
2023/04/22 14:49:17;;;;;;;;;;;20.30;65.60;;;;;;5122226;27;20288;-70
2023/04/22 14:51:43;;;;;;;;;;;20.30;65.40;;;;;;5094450;28;19919;-70
2023/04/22 14:54:08;;;;;;;;;;;20.60;65.60;;;;;;5088987;28;19927;-70
2023/04/22 14:56:35;;;;;;;;;;;20.10;66.60;;;;;;5093547;28;20437;-70
2023/04/22 14:59:00;;;;;;;;;;;19.60;64.30;;;;;;5089992;28;20372;-70
2023/04/22 15:01:26;;;;;;;;;;;19.80;69.10;;;;;;5091891;28;19965;-70
2023/04/22 15:03:51;;;;;;;;;;;19.70;68.10;;;;;;5091967;28;19915;-70
2023/04/22 15:06:17;;;;;;;;;;;19.50;70.10;;;;;;5098151;28;19919;-70
2023/04/22 15:08:42;;;;;;;;;;;19.30;71.30;;;;;;5093023;28;19920;-70
2023/04/22 15:11:08;;;;;;;;;;;18.90;73.10;;;;;;5087523;28;20003;-71
2023/04/22 15:13:33;;;;;;;;;;;19.40;72.20;;;;;;5094026;28;19908;-71
2023/04/22 15:15:59;;;;;;;;;;;19.70;73.40;;;;;;5095021;28;19908;-70
2023/04/22 15:18:25;;;;;;;;;;;20.00;73.40;;;;;;5097442;28;19943;-71
2023/04/22 15:20:50;;;;;;;;;;;19.60;72.10;;;;;;5095208;28;19939;-71
2023/04/22 15:23:16;;;;;;;;;;;20.00;71.90;;;;;;5089643;28;19954;-71
2023/04/22 15:25:41;;;;;;;;;;;19.80;71.90;;;;;;5095722;28;20291;-71
2023/04/22 15:28:07;;;;;;;;;;;19.80;73.30;;;;;;5092325;28;19916;-71
2023/04/22 15:30:32;;;;;;;;;;;19.70;71.20;;;;;;5092620;28;19954;-71
2023/04/22 15:35:21;;;;;;;;;;;19.60;74.10;;;;;;5086839;28;19926;-71
2023/04/22 15:37:46;;;;;;;;;;;19.80;73.10;;;;;;5087011;28;19912;-71
2023/04/22 15:40:12;;;;;;;;;;;19.60;75.10;;;;;;5088007;28;19958;-71
2023/04/22 15:42:37;;;;;;;;;;;19.50;73.80;;;;;;5087520;28;19995;-71
2023/04/22 15:45:03;;;;;;;;;;;19.50;72.10;;;;;;5087323;28;19909;-71
2023/04/22 15:47:29;;;;;;;;;;;19.60;73.00;;;;;;5087413;28;19913;-71
2023/04/22 15:49:56;;;;;;;;;;;19.60;73.60;;;;;;5088527;28;19943;-71
2023/04/22 15:52:22;;;;;;;;;;;19.50;72.60;;;;;;5087934;28;19956;-71
2023/04/22 15:54:48;;;;;;;;;;;19.70;73.30;;;;;;5086918;28;19952;-71
2023/04/22 15:57:14;;;;;;;;;;;19.80;71.80;;;;;;5086621;28;20632;-71
2023/04/22 15:59:40;;;;;;;;;;;20.60;73.20;;;;;;5088312;28;19931;-71
2023/04/22 16:02:05;;;;;;;;;;;20.30;71.50;;;;;;5086307;28;19913;-71
2023/04/22 16:04:31;;;;;;;;;;;20.20;72.90;;;;;;5085430;28;19923;-70
2023/04/22 16:06:58;;;;;;;;;;;19.90;72.70;;;;;;5087243;28;19981;-70
2023/04/22 16:09:23;;;;;;;;;;;19.70;73.60;;;;;;5088058;28;19909;-70
2023/04/22 16:11:49;;;;;;;;;;;19.40;73.30;;;;;;5086234;28;19914;-70
2023/04/22 16:14:15;;;;;;;;;;;19.10;73.50;;;;;;5085969;28;19919;-70
2023/04/22 16:16:41;;;;;;;;;;;19.00;73.50;;;;;;5090858;28;20299;-69
2023/04/22 16:19:07;;;;;;;;;;;18.80;74.10;;;;;;5074126;28;20319;-70
2023/04/22 16:21:32;;;;;;;;;;;18.70;73.90;;;;;;5082609;28;19908;-70
2023/04/22 16:23:59;;;;;;;;;;;18.60;76.10;;;;;;5079754;28;19919;-70
2023/04/22 16:26:25;;;;;;;;;;;18.50;75.50;;;;;;5083827;28;20391;-69
2023/04/22 16:28:50;;;;;;;;;;;18.30;76.80;;;;;;5083675;28;20147;-70
2023/04/22 16:31:17;;;;;;;;;;;18.30;77.50;;;;;;5081397;28;20372;-70
2023/04/22 16:33:43;;;;;;;;;;;18.30;73.40;;;;;;5081565;28;19924;-68
2023/04/22 16:36:09;;;;;;;;;;;18.30;74.50;;;;;;5081463;28;19916;-69
2023/04/22 16:38:35;;;;;;;;;;;18.30;74.80;;;;;;5082153;28;20030;-69
2023/04/22 16:41:01;;;;;;;;;;;18.20;71.60;;;;;;5082081;28;19913;-69
2023/04/22 16:43:27;;;;;;;;;;;18.20;72.60;;;;;;5083054;28;19912;-69
2023/04/22 16:45:52;;;;;;;;;;;18.10;73.90;;;;;;5073601;28;19932;-69
2023/04/22 16:48:18;;;;;;;;;;;18.00;74.10;;;;;;5066181;28;19916;-70
2023/04/22 16:50:43;;;;;;;;;;;17.80;74.40;;;;;;5068836;28;20249;-70
2023/04/22 16:53:10;;;;;;;;;;;17.80;73.30;;;;;;5063842;28;19959;-70
2023/04/22 16:55:36;;;;;;;;;;;17.70;74.30;;;;;;5071010;28;19923;-70
2023/04/22 16:58:02;;;;;;;;;;;17.60;75.30;;;;;;5064576;28;20250;-70
2023/04/22 17:00:28;;;;;;;;;;;17.50;76.80;;;;;;5073302;28;19939;-69
2023/04/22 17:02:54;;;;;;;;;;;17.30;77.50;;;;;;5064329;28;20388;-69
2023/04/22 17:05:19;;;;;;;;;;;17.30;77.90;;;;;;5067480;28;19908;-68
2023/04/22 17:07:45;;;;;;;;;;;17.00;77.50;;;;;;5069247;28;19915;-69
2023/04/22 17:10:10;;;;;;;;;;;17.30;76.30;;;;;;5064237;28;19912;-69
2023/04/22 17:12:36;;;;;;;;;;;17.20;78.20;;;;;;5068673;28;19913;-70
2023/04/22 17:15:02;;;;;;;;;;;17.10;78.70;;;;;;5083387;28;19977;-69
2023/04/22 17:17:28;;;;;;;;;;;17.10;78.60;;;;;;5071094;28;19909;-69
2023/04/22 17:19:53;;;;;;;;;;;17.00;78.60;;;;;;5072219;28;20601;-69
2023/04/22 17:22:19;;;;;;;;;;;17.00;79.80;;;;;;5079491;28;20437;-69
2023/04/22 17:24:44;;;;;;;;;;;17.00;79.20;;;;;;5076638;28;19919;-69
2023/04/22 17:27:13;;;;;;;;;;;17.00;79.00;;;;;;5075017;28;20420;-69
2023/04/22 17:29:39;;;;;;;;;;;17.20;77.00;;;;;;5071784;28;20073;-69
2023/04/22 17:32:05;;;;;;;;;;;17.10;78.90;;;;;;5069182;28;19919;-69
2023/04/22 17:34:30;;;;;;;;;;;16.90;79.30;;;;;;5071058;28;19916;-70
2023/04/22 17:36:56;;;;;;;;;;;16.90;80.30;;;;;;5072101;28;19909;-69
2023/04/22 17:39:21;;;;;;;;;;;16.70;80.80;;;;;;5070970;28;20015;-70
2023/04/22 17:41:47;;;;;;;;;;;16.70;81.90;;;;;;5077822;28;19915;-70
2023/04/22 17:44:12;;;;;;;;;;;16.60;82.50;;;;;;5074487;28;19999;-70
2023/04/22 17:46:39;;;;;;;;;;;16.50;82.60;;;;;;5070533;28;19913;-70
2023/04/22 17:49:05;;;;;;;;;;;16.30;84.50;;;;;;5070255;28;19963;-70
2023/04/22 17:51:31;;;;;;;;;;;16.40;84.70;;;;;;5068008;28;19908;-70
2023/04/22 17:53:56;;;;;;;;;;;16.30;85.00;;;;;;5064439;28;19916;-70
2023/04/22 17:56:22;;;;;;;;;;;16.30;85.80;;;;;;5069440;28;19915;-70
2023/04/22 17:58:48;;;;;;;;;;;16.00;88.00;;;;;;5067016;28;19909;-70
2023/04/22 18:01:13;;;;;;;;;;;15.80;89.70;;;;;;5071521;28;19908;-70
2023/04/22 18:03:40;;;;;;;;;;;15.60;90.90;;;;;;5071304;28;19917;-69
2023/04/22 18:06:06;;;;;;;;;;;15.50;91.10;;;;;;5065141;28;19912;-70
2023/04/22 18:08:31;;;;;;;;;;;15.40;91.90;;;;;;5071673;28;19931;-70
2023/04/22 18:10:57;;;;;;;;;;;15.40;92.50;;;;;;5072075;28;19909;-69
2023/04/22 18:13:22;;;;;;;;;;;15.10;93.30;;;;;;5065054;28;19932;-69
2023/04/22 18:15:48;;;;;;;;;;;14.50;93.60;;;;;;5052567;28;19908;-70
2023/04/22 18:18:14;;;;;;;;;;;15.00;94.10;;;;;;5055457;28;19954;-69
2023/04/22 18:20:41;;;;;;;;;;;14.90;94.50;;;;;;5054850;28;20398;-69
2023/04/22 18:23:06;;;;;;;;;;;14.70;95.20;;;;;;5051347;28;20012;-69
2023/04/22 18:25:32;;;;;;;;;;;14.70;95.60;;;;;;5057142;28;20028;-69
2023/04/22 18:27:57;;;;;;;;;;;14.70;96.30;;;;;;5053705;28;20377;-69
2023/04/22 18:30:23;;;;;;;;;;;14.50;97.00;;;;;;5053979;28;19917;-69
2023/04/22 18:32:49;;;;;;;;;;;14.40;97.90;;;;;;5064503;28;19909;-69
2023/04/22 18:35:15;;;;;;;;;;;14.40;97.90;;;;;;5070288;28;19923;-69
2023/04/22 18:37:43;;;;;;;;;;;14.40;98.20;;;;;;5070797;28;19915;-69
2023/04/22 18:40:09;;;;;;;;;;;14.30;98.40;;;;;;5071372;28;19919;-69
2023/04/22 18:42:35;;;;;;;;;;;14.30;98.80;;;;;;5070757;28;19910;-69
2023/04/22 18:45:02;;;;;;;;;;;14.20;99.70;;;;;;5070465;28;19908;-69
2023/04/22 18:47:27;;;;;;;;;;;14.00;99.90;;;;;;5052494;28;19948;-69
2023/04/22 18:49:53;;;;;;;;;;;13.90;99.90;;;;;;5051792;28;19963;-69
2023/04/22 18:52:19;;;;;;;;;;;13.70;99.90;;;;;;5052784;28;20342;-69
2023/04/22 18:54:44;;;;;;;;;;;13.70;99.90;;;;;;5055745;28;19913;-69
2023/04/22 18:57:10;;;;;;;;;;;13.60;99.90;;;;;;5070396;28;19934;-69
2023/04/22 19:00:53;;;;;;;;;;;13.40;99.90;;;;;;5088844;28;19912;-70
2023/04/22 19:03:19;;;;;;;;;;;13.40;99.90;;;;;;5067071;28;20357;-70
2023/04/22 19:05:45;;;;;;;;;;;13.50;99.90;;;;;;5048793;28;20387;-70
2023/04/22 19:08:11;;;;;;;;;;;;;;;;;;5049844;28;20152;-69
2023/04/22 19:12:48;;;;;;;;;;;13.20;99.90;;;;;;5118451;27;20368;-69
2023/04/22 19:16:44;;;;;;;;;;;13.20;99.90;;;;;;5076455;28;19913;-70
2023/04/22 19:20:04;;;;;;;;;;;13.10;99.90;;;;;;5087893;28;19930;-70
2023/04/22 19:22:30;;;;;;;;;;;13.10;99.90;;;;;;5094447;28;19917;-70
2023/04/22 19:24:57;;;;;;;;;;;13.00;99.90;;;;;;5087881;28;20336;-70
2023/04/22 19:27:23;;;;;;;;;;;12.90;99.90;;;;;;5087455;28;19915;-69
2023/04/22 19:29:52;;;;;;;;;;;12.80;99.90;;;;;;5087927;28;19909;-70
2023/04/22 19:32:34;;;;;;;;;;;12.80;99.90;;;;;;5088219;28;19916;-70
2023/04/22 19:35:00;;;;;;;;;;;12.80;99.90;;;;;;5087191;28;20003;-70
2023/04/22 19:39:57;;;;;;;;;;;12.70;99.90;;;;;;5069413;28;19913;-70
2023/04/22 19:44:36;;;;;;;;;;;12.60;99.90;;;;;;5075136;28;20296;-69
2023/04/22 19:47:02;;;;;;;;;;;12.70;99.90;;;;;;5051746;28;19913;-69
2023/04/22 19:49:29;;;;;;;;;;;12.70;99.90;;;;;;5051353;28;20166;-69
2023/04/22 19:52:34;;;;;;;;;;;12.70;99.90;;;;;;5087028;28;19916;-70
2023/04/22 19:57:41;;;;;;;;;;;12.60;99.90;;;;;;5087072;28;19927;-70
2023/04/22 20:00:07;;;;;;;;;;;12.50;99.90;;;;;;5068402;28;19995;-70
2023/04/22 20:02:33;;;;;;;;;;;12.30;99.90;;;;;;5066986;28;20007;-70
2023/04/22 20:06:15;;;;;;;;;;;12.20;99.90;;;;;;5095331;28;20292;-70
2023/04/22 20:08:41;;;;;;;;;;;12.10;99.90;;;;;;5092782;28;19912;-70
2023/04/22 20:11:48;;;;;;;;;;;12.10;99.90;;;;;;5087491;28;19917;-69
2023/04/22 20:16:19;;;;;;;;;;;12.00;99.90;;;;;;5088136;28;20372;-70
2023/04/22 20:18:45;;;;;;;;;;;11.90;99.90;;;;;;5087852;28;19912;-70
2023/04/22 20:21:11;;;;;;;;;;;12.00;99.90;;;;;;5087938;28;19919;-70
2023/04/22 20:23:38;;;;;;;;;;;12.10;99.90;;;;;;5093535;28;19908;-69
2023/04/22 20:26:03;;;;;;;;;;;12.10;99.90;;;;;;5092286;28;19908;-69
2023/04/22 20:28:38;;;;;;;;;;;12.20;99.90;;;;;;5087642;28;19908;-70
2023/04/22 20:31:03;;;;;;;;;;;12.10;99.90;;;;;;5092186;28;19909;-69
2023/04/22 20:33:29;;;;;;;;;;;12.10;99.90;;;;;;5084729;28;20329;-69
2023/04/22 20:37:18;;;;;;;;;;;11.90;99.90;;;;;;5086052;28;19954;-70
2023/04/22 20:39:44;;;;;;;;;;;11.80;99.90;;;;;;5067508;28;19913;-69
2023/04/22 20:42:57;;;;;;;;;;;11.80;99.90;;;;;;5094058;28;20334;-69
2023/04/22 20:45:23;;;;;;;;;;;11.60;99.90;;;;;;5087340;28;19916;-70
2023/04/22 20:47:49;;;;;;;;;;;11.60;99.90;;;;;;5089410;28;19908;-69
2023/04/22 20:50:14;;;;;;;;;;;11.60;99.90;;;;;;5087704;28;19909;-70
2023/04/22 20:52:40;;;;;;;;;;;11.70;99.90;;;;;;5094799;28;19950;-70
2023/04/22 20:55:06;;;;;;;;;;;11.50;99.90;;;;;;5089856;28;19939;-70
2023/04/22 20:57:31;;;;;;;;;;;11.50;99.90;;;;;;5090722;28;20058;-71
2023/04/22 20:59:57;;;;;;;;;;;11.40;99.90;;;;;;5092065;28;19908;-71
2023/04/22 21:02:23;;;;;;;;;;;11.40;99.90;;;;;;5085811;28;19966;-71
2023/04/22 21:04:49;;;;;;;;;;;11.50;99.90;;;;;;5087372;28;19909;-70
2023/04/22 21:07:14;;;;;;;;;;;11.50;99.90;;;;;;5095920;28;19931;-71
2023/04/22 21:10:33;;;;;;;;;;;11.40;99.90;;;;;;5091675;28;19912;-70
2023/04/22 21:12:59;;;;;;;;;;;11.50;99.90;;;;;;5091816;28;19946;-70
2023/04/22 21:15:24;;;;;;;;;;;11.50;99.90;;;;;;5093538;28;19961;-70
2023/04/22 21:18:31;;;;;;;;;;;11.40;99.90;;;;;;5087980;28;19920;-70
2023/04/22 21:20:57;;;;;;;;;;;11.30;99.90;;;;;;5089452;28;19919;-71
2023/04/22 21:24:42;;;;;;;;;;;11.30;99.90;;;;;;5090074;28;20295;-70
2023/04/22 21:27:08;;;;;;;;;;;11.30;99.90;;;;;;5087983;28;20004;-69
2023/04/22 21:30:19;;;;;;;;;;;11.30;99.90;;;;;;5092003;27;19912;-70
2023/04/22 21:33:47;;;;;;;;;;;11.10;99.90;;;;;;5087679;28;19913;-69
2023/04/22 21:36:13;;;;;;;;;;;11.10;99.90;;;;;;5087320;28;19913;-69
2023/04/22 21:39:03;;;;;;;;;;;11.20;99.90;;;;;;5087873;28;19912;-69
2023/04/22 21:41:29;;;;;;;;;;;11.20;99.90;;;;;;5096032;28;20324;-69
2023/04/22 21:43:54;;;;;;;;;;;11.20;99.90;;;;;;5077409;28;19913;-70
2023/04/22 21:48:09;;;;;;;;;;;11.40;99.90;;;;;;5093397;28;20375;-70
2023/04/22 21:50:35;;;;;;;;;;;11.50;99.90;;;;;;5088107;28;19912;-70
2023/04/22 21:53:00;;;;;;;;;;;11.50;99.90;;;;;;5087619;28;19916;-69
2023/04/22 21:55:26;;;;;;;;;;;11.40;99.90;;;;;;5088574;28;19995;-69
2023/04/22 21:57:52;;;;;;;;;;;11.30;99.90;;;;;;5087877;28;19931;-69
2023/04/22 22:00:18;;;;;;;;;;;11.30;99.90;;;;;;5087421;28;19909;-70
2023/04/22 22:02:44;;;;;;;;;;;11.30;99.90;;;;;;5088153;28;19909;-70
2023/04/22 22:05:09;;;;;;;;;;;11.30;99.90;;;;;;5090737;28;19915;-72
2023/04/22 22:07:42;;;;;;;;;;;11.40;99.90;;;;;;5087524;28;20007;-71
2023/04/22 22:10:10;;;;;;;;;;;11.40;99.90;;;;;;5087396;28;20045;-69
2023/04/22 22:12:35;;;;;;;;;;;11.40;99.90;;;;;;5094943;28;20300;-71
2023/04/22 22:15:02;;;;;;;;;;;11.50;99.90;;;;;;5086970;28;19912;-71
2023/04/22 22:17:27;;;;;;;;;;;11.50;99.90;;;;;;5083160;28;20003;-71
2023/04/22 22:19:54;;;;;;;;;;;11.50;99.90;;;;;;5093375;22;20020;-71
2023/04/22 22:22:20;;;;;;;;;;;11.30;99.90;;;;;;5052651;28;19982;-71
2023/04/22 22:24:45;;;;;;;;;;;11.40;99.90;;;;;;5051567;28;19959;-72
2023/04/22 22:27:11;;;;;;;;;;;11.40;99.90;;;;;;5063485;28;20277;-71
2023/04/22 22:29:39;;;;;;;;;;;11.50;99.90;;;;;;5048951;28;19909;-71
2023/04/22 22:32:05;;;;;;;;;;;11.50;99.90;;;;;;5058368;28;19908;-71
2023/04/22 22:34:31;;;;;;;;;;;11.40;99.90;;;;;;5052756;28;19909;-72
2023/04/22 22:36:56;;;;;;;;;;;11.30;99.90;;;;;;5058493;28;19916;-71
2023/04/22 22:39:22;;;;;;;;;;;11.50;99.90;;;;;;5058034;28;20280;-72
2023/04/22 22:41:47;;;;;;;;;;;11.40;99.90;;;;;;5057889;28;19916;-72
2023/04/22 22:44:13;;;;;;;;;;;11.30;99.90;;;;;;5059613;28;19913;-72
2023/04/22 22:46:39;;;;;;;;;;;11.20;99.90;;;;;;5057392;28;19913;-72
2023/04/22 22:49:05;;;;;;;;;;;11.20;99.90;;;;;;5056548;28;20411;-72
2023/04/22 22:51:31;;;;;;;;;;;11.30;99.90;;;;;;5062077;28;19909;-72
2023/04/22 22:53:57;;;;;;;;;;;11.20;99.90;;;;;;5062484;28;19920;-72
2023/04/22 22:56:22;;;;;;;;;;;11.30;99.90;;;;;;5065836;28;19913;-72
2023/04/22 22:58:48;;;;;;;;;;;11.40;99.90;;;;;;5051205;28;19936;-72
2023/04/22 23:01:14;;;;;;;;;;;11.40;99.90;;;;;;5040189;28;19943;-71
2023/04/22 23:03:39;;;;;;;;;;;11.40;99.90;;;;;;5042697;28;19913;-71
2023/04/22 23:06:05;;;;;;;;;;;11.50;99.90;;;;;;5043226;28;19914;-71
2023/04/22 23:08:31;;;;;;;;;;;11.50;99.90;;;;;;5038871;28;19916;-72
2023/04/22 23:10:56;;;;;;;;;;;11.30;99.90;;;;;;5042184;28;19913;-72
2023/04/22 23:13:22;;;;;;;;;;;11.60;99.90;;;;;;5043517;28;19924;-71
2023/04/22 23:15:47;;;;;;;;;;;11.80;99.90;;;;;;5053113;28;19909;-72
2023/04/22 23:18:15;;;;;;;;;;;11.70;99.90;;;;;;5039977;28;19909;-72
2023/04/22 23:20:41;;;;;;;;;;;11.60;99.90;;;;;;5052628;28;19943;-71
2023/04/22 23:23:07;;;;;;;;;;;11.60;99.90;;;;;;5043430;28;19917;-71
2023/04/22 23:25:33;;;;;;;;;;;11.50;99.90;;;;;;5044362;28;19915;-72
2023/04/22 23:27:59;;;;;;;;;;;11.60;99.90;;;;;;5038025;28;19920;-72
2023/04/22 23:30:25;;;;;;;;;;;11.50;99.90;;;;;;5041170;28;19952;-72
2023/04/22 23:32:51;;;;;;;;;;;11.50;99.90;;;;;;5041262;28;20313;-72
2023/04/22 23:35:17;;;;;;;;;;;11.60;99.90;;;;;;5041712;28;19991;-72
2023/04/22 23:37:44;;;;;;;;;;;11.50;99.90;;;;;;5046410;28;20344;-71
2023/04/22 23:40:10;;;;;;;;;;;11.40;99.90;;;;;;5053708;28;19913;-72
2023/04/22 23:42:35;;;;;;;;;;;11.40;99.90;;;;;;5044365;28;19923;-72
2023/04/22 23:45:01;;;;;;;;;;;11.40;99.90;;;;;;5047614;28;19909;-71
2023/04/22 23:47:27;;;;;;;;;;;11.30;99.90;;;;;;5041689;28;19913;-72
2023/04/22 23:49:52;;;;;;;;;;;10.50;99.90;;;;;;5038332;28;19960;-72
2023/04/22 23:52:18;;;;;;;;;;;11.20;99.90;;;;;;5038387;28;20282;-71
2023/04/22 23:54:43;;;;;;;;;;;11.40;99.90;;;;;;5045605;28;19908;-72
2023/04/22 23:57:09;;;;;;;;;;;11.40;99.90;;;;;;5041274;28;20292;-72
2023/04/22 23:59:35;;;;;;;;;;;11.20;99.90;;;;;;5043052;28;19913;-72
